Time;durP1;ratioP1;P1;durP2;ratioP2;P2;SDS_P1;SDS_P2;PMS_P1;PMS_P2;Temp;Humidity;BMP_temperature;BMP_pressure;BME280_temperature;BME280_humidity;BME280_pressure;Samples;Min_cycle;Max_cycle;Signal;HPM_P1;HPM_P2
2023/09/27 00:01:02;;;;;;;11.88;8.50;;;11.20;99.90;;;;;;5077690;28;20205;-85
2023/09/27 00:03:28;;;;;;;9.18;8.10;;;11.10;99.90;;;;;;5077551;28;20177;-85
2023/09/27 00:05:54;;;;;;;9.43;8.55;;;11.10;99.90;;;;;;5077508;28;20192;-85
2023/09/27 00:08:19;;;;;;;9.68;8.68;;;11.10;99.90;;;;;;5078553;28;20279;-85
2023/09/27 00:10:46;;;;;;;14.10;8.98;;;11.10;99.90;;;;;;5078604;28;20208;-85
2023/09/27 00:13:11;;;;;;;9.50;8.57;;;11.10;99.90;;;;;;5077508;28;20173;-85
2023/09/27 00:15:37;;;;;;;9.18;7.63;;;11.10;99.90;;;;;;5077764;28;20222;-85
2023/09/27 00:18:04;;;;;;;10.73;8.95;;;11.10;99.90;;;;;;5077550;28;20204;-85
2023/09/27 00:20:30;;;;;;;13.10;11.68;;;11.20;99.90;;;;;;5077571;28;20204;-85
2023/09/27 00:22:56;;;;;;;11.45;10.13;;;11.20;99.90;;;;;;5077144;28;20704;-85
2023/09/27 00:25:21;;;;;;;12.77;10.07;;;11.20;99.90;;;;;;5077666;28;20177;-85
2023/09/27 00:27:47;;;;;;;12.05;10.85;;;11.20;99.90;;;;;;5077510;28;20287;-85
2023/09/27 00:30:16;;;;;;;16.00;10.73;;;11.20;99.90;;;;;;5077806;28;20205;-85
2023/09/27 00:32:45;;;;;;;13.77;10.80;;;11.20;99.90;;;;;;5077155;28;20202;-85
2023/09/27 00:35:18;;;;;;;12.30;10.68;;;11.10;99.90;;;;;;5077011;28;20180;-85
2023/09/27 00:37:44;;;;;;;13.85;11.30;;;11.20;99.90;;;;;;5076914;28;20204;-85
2023/09/27 00:40:12;;;;;;;12.27;11.02;;;11.20;99.90;;;;;;5077184;28;20260;-85
2023/09/27 00:42:38;;;;;;;10.90;9.85;;;11.10;99.90;;;;;;5076762;28;20168;-85
2023/09/27 00:45:05;;;;;;;11.00;9.10;;;11.10;99.90;;;;;;5077593;28;20233;-85
2023/09/27 00:47:32;;;;;;;10.23;8.70;;;11.10;99.90;;;;;;5094826;28;20215;-85
2023/09/27 00:49:58;;;;;;;11.52;10.18;;;11.00;99.90;;;;;;5076822;28;20177;-85
2023/09/27 00:52:24;;;;;;;10.77;9.68;;;11.00;99.90;;;;;;5076953;28;20592;-85
2023/09/27 00:54:51;;;;;;;12.88;9.98;;;11.00;99.90;;;;;;5076809;28;20181;-85
2023/09/27 00:57:17;;;;;;;12.00;9.13;;;11.00;99.90;;;;;;5076511;28;20215;-85
2023/09/27 00:59:43;;;;;;;10.43;9.43;;;10.90;99.90;;;;;;5077427;28;20272;-85
2023/09/27 01:52:54;;;;;;;10.88;9.70;;;10.70;99.90;;;;;;4934878;29;20188;-74
2023/09/27 01:55:21;;;;;;;11.43;10.18;;;10.70;99.90;;;;;;4906032;29;20241;-74
2023/09/27 01:57:47;;;;;;;10.90;9.90;;;10.70;99.90;;;;;;4972409;28;20187;-74
2023/09/27 02:00:14;;;;;;;10.10;9.10;;;10.60;99.90;;;;;;5013701;28;20632;-74
2023/09/27 02:02:42;;;;;;;11.40;9.60;;;10.60;99.90;;;;;;4996188;28;20186;-74
2023/09/27 02:05:09;;;;;;;12.38;9.68;;;10.60;99.90;;;;;;4996274;28;20190;-74
2023/09/27 02:07:37;;;;;;;11.10;9.23;;;10.60;99.90;;;;;;4996325;28;20196;-74
2023/09/27 02:10:03;;;;;;;10.50;9.55;;;10.60;99.90;;;;;;4996163;28;20180;-74
2023/09/27 02:12:29;;;;;;;11.10;10.20;;;10.60;99.90;;;;;;5013714;28;20182;-74
2023/09/27 02:14:54;;;;;;;11.38;10.27;;;10.70;99.90;;;;;;5012526;28;20180;-74
2023/09/27 02:17:20;;;;;;;11.40;10.32;;;10.80;99.90;;;;;;5012365;28;20214;-74
2023/09/27 02:19:45;;;;;;;10.43;9.52;;;10.80;99.90;;;;;;5012430;28;20191;-74
2023/09/27 02:22:11;;;;;;;10.88;9.88;;;10.70;99.90;;;;;;5012641;28;20293;-74
2023/09/27 02:24:36;;;;;;;10.38;9.48;;;10.60;99.90;;;;;;5012359;28;20642;-74
2023/09/27 02:27:02;;;;;;;10.10;9.23;;;10.60;99.90;;;;;;5013522;28;20195;-74
2023/09/27 02:29:28;;;;;;;10.90;9.80;;;10.50;99.90;;;;;;5018249;28;20168;-74
2023/09/27 02:31:53;;;;;;;11.05;9.85;;;10.40;99.90;;;;;;5016393;28;20183;-74
2023/09/27 02:34:19;;;;;;;10.13;9.07;;;10.40;99.90;;;;;;5016313;28;20202;-74
2023/09/27 02:36:46;;;;;;;9.90;9.10;;;10.40;99.90;;;;;;5016235;28;20203;-74
2023/09/27 02:39:11;;;;;;;10.70;9.02;;;10.40;99.90;;;;;;5016314;28;20189;-74
2023/09/27 02:41:37;;;;;;;11.43;9.30;;;10.40;99.90;;;;;;5016126;28;20306;-74
2023/09/27 02:44:03;;;;;;;10.07;8.90;;;10.40;99.90;;;;;;5016138;28;20178;-74
2023/09/27 02:46:29;;;;;;;14.20;9.57;;;10.40;99.90;;;;;;5016014;28;20286;-74
2023/09/27 02:48:54;;;;;;;10.23;9.23;;;10.40;99.90;;;;;;5016330;28;20217;-74
2023/09/27 02:51:21;;;;;;;14.93;9.75;;;10.50;99.90;;;;;;5015985;28;20225;-74
2023/09/27 02:53:46;;;;;;;9.93;9.00;;;10.50;99.90;;;;;;5017086;28;20183;-74
2023/09/27 02:56:12;;;;;;;10.80;9.80;;;10.60;99.90;;;;;;5015812;28;20253;-74
2023/09/27 02:58:39;;;;;;;10.13;9.07;;;10.60;99.90;;;;;;5017012;28;20174;-74
2023/09/27 03:01:05;;;;;;;10.98;10.05;;;10.60;99.90;;;;;;5015744;28;20214;-74
2023/09/27 03:03:31;;;;;;;25.65;10.75;;;10.60;99.90;;;;;;5000193;28;20171;-74
2023/09/27 03:06:00;;;;;;;11.70;9.88;;;10.70;99.90;;;;;;4999120;28;20191;-74
2023/09/27 03:08:25;;;;;;;13.80;10.07;;;10.70;99.90;;;;;;5015964;28;20175;-74
2023/09/27 03:10:51;;;;;;;10.88;9.77;;;10.70;99.90;;;;;;5015953;28;20176;-74
2023/09/27 03:13:18;;;;;;;17.50;10.30;;;10.60;99.90;;;;;;5016473;28;20327;-74
2023/09/27 03:15:44;;;;;;;36.22;11.68;;;10.70;99.90;;;;;;5015801;28;20296;-75
2023/09/27 03:18:10;;;;;;;39.92;11.45;;;10.80;99.90;;;;;;5016329;28;20230;-74
2023/09/27 03:20:36;;;;;;;44.90;10.93;;;10.80;99.90;;;;;;4999436;28;20207;-74
2023/09/27 03:23:02;;;;;;;13.20;10.35;;;10.80;99.90;;;;;;5015440;28;20646;-74
2023/09/27 03:25:28;;;;;;;17.67;10.25;;;10.80;99.90;;;;;;5015203;28;20645;-74
2023/09/27 03:27:54;;;;;;;40.75;10.63;;;10.90;99.90;;;;;;5016133;28;20187;-74
2023/09/27 03:30:19;;;;;;;32.88;9.95;;;11.00;99.90;;;;;;5015369;28;20175;-74
2023/09/27 03:32:45;;;;;;;66.90;11.00;;;10.90;99.90;;;;;;5015213;28;20180;-74
2023/09/27 03:35:11;;;;;;;278.85;13.63;;;10.90;99.90;;;;;;5015234;28;20178;-74
2023/09/27 03:51:39;;;;;;;44.65;13.80;;;10.60;99.90;;;;;;4975931;28;20199;-74
2023/09/27 03:54:05;;;;;;;99.18;12.57;;;10.60;99.90;;;;;;5015178;28;20183;-74
2023/09/27 03:56:30;;;;;;;77.78;11.98;;;10.70;99.90;;;;;;4998466;28;20230;-74
2023/09/27 03:58:56;;;;;;;41.58;11.20;;;10.60;99.90;;;;;;4999247;28;20191;-74
2023/09/27 04:01:21;;;;;;;59.53;13.05;;;10.60;99.90;;;;;;5016225;28;20213;-76
2023/09/27 04:03:47;;;;;;;34.30;12.13;;;10.60;99.90;;;;;;4999241;28;20167;-76
2023/09/27 04:06:13;;;;;;;32.72;11.25;;;10.70;99.90;;;;;;5014535;28;20600;-77
2023/09/27 04:08:38;;;;;;;20.33;10.60;;;10.80;99.90;;;;;;4998440;28;20180;-77
2023/09/27 04:11:06;;;;;;;21.63;10.90;;;10.80;99.90;;;;;;4999065;28;20203;-76
2023/09/27 04:13:32;;;;;;;18.40;9.52;;;10.90;99.90;;;;;;4998525;28;20183;-78
2023/09/27 04:15:58;;;;;;;56.78;10.73;;;10.90;99.90;;;;;;4999342;28;20291;-76
2023/09/27 04:18:24;;;;;;;111.95;11.32;;;11.00;99.90;;;;;;5015679;28;20207;-76
2023/09/27 04:20:49;;;;;;;29.02;9.95;;;10.90;99.90;;;;;;5014974;28;20199;-76
2023/09/27 04:23:15;;;;;;;138.02;11.93;;;11.00;99.90;;;;;;4998021;28;20179;-76
2023/09/27 04:29:04;;;;;;;22.33;9.82;;;11.10;99.90;;;;;;5015659;28;20214;-77
2023/09/27 04:31:29;;;;;;;67.47;10.57;;;11.10;99.90;;;;;;4997809;28;20206;-76
2023/09/27 04:33:55;;;;;;;66.95;9.32;;;11.20;99.90;;;;;;4997810;28;20265;-76
2023/09/27 04:36:21;;;;;;;49.70;10.15;;;11.20;99.90;;;;;;4998240;28;20246;-77
2023/09/27 04:38:47;;;;;;;22.08;10.25;;;11.20;99.90;;;;;;5015922;28;20207;-77
2023/09/27 04:41:17;;;;;;;40.28;11.68;;;11.20;99.90;;;;;;5013902;28;20211;-76
2023/09/27 04:43:44;;;;;;;156.40;12.25;;;11.30;99.90;;;;;;5015291;28;20566;-77
2023/09/27 04:46:17;;;;;;;73.28;9.57;;;11.00;99.90;;;;;;4997619;28;20278;-76
2023/09/27 04:48:46;;;;;;;74.80;9.55;;;11.00;99.90;;;;;;4997842;28;20179;-76
2023/09/27 04:51:12;;;;;;;80.05;10.27;;;10.80;99.90;;;;;;5014087;28;20179;-76
2023/09/27 04:53:37;;;;;;;33.65;10.38;;;10.60;99.90;;;;;;5014934;28;20728;-76
2023/09/27 04:56:05;;;;;;;42.67;10.55;;;10.60;99.90;;;;;;4997196;28;20282;-77
2023/09/27 04:58:30;;;;;;;25.33;11.23;;;10.60;99.90;;;;;;4998188;28;20183;-76
2023/09/27 05:00:56;;;;;;;21.38;11.35;;;10.60;99.90;;;;;;4997239;28;20696;-77
2023/09/27 05:03:22;;;;;;;17.92;11.13;;;10.50;99.90;;;;;;4998220;28;20503;-77
2023/09/27 05:13:03;;;;;;;15.13;13.75;;;10.20;99.90;;;;;;4993260;28;20396;-76
2023/09/27 06:22:50;;;;;;;4.85;4.55;;;10.80;99.90;;;;;;4993866;28;20227;-74
2023/09/27 06:27:52;;;;;;;5.90;5.22;;;10.90;99.90;;;;;;5096608;22;20331;-86
2023/09/27 06:30:17;;;;;;;12.35;5.30;;;11.00;99.90;;;;;;5052879;28;20182;-85
2023/09/27 06:32:43;;;;;;;5.30;4.90;;;11.20;99.90;;;;;;5051959;28;20192;-85
2023/09/27 06:35:12;;;;;;;8.82;5.60;;;11.30;99.90;;;;;;5052009;28;20178;-86
2023/09/27 06:37:43;;;;;;;18.88;5.88;;;11.50;99.90;;;;;;5052202;28;20199;-86
2023/09/27 06:40:15;;;;;;;11.48;5.85;;;11.70;99.90;;;;;;5052011;28;20166;-86
2023/09/27 06:42:41;;;;;;;21.02;6.30;;;11.80;99.90;;;;;;5052798;28;20202;-86
2023/09/27 06:45:07;;;;;;;7.32;6.05;;;11.90;99.90;;;;;;5052163;28;20196;-85
2023/09/27 06:47:35;;;;;;;14.52;6.10;;;11.90;99.90;;;;;;5051969;28;20228;-85
2023/09/27 06:50:02;;;;;;;9.35;5.50;;;12.00;99.90;;;;;;5051930;28;20181;-85
2023/09/27 06:52:29;;;;;;;11.38;6.43;;;12.10;99.90;;;;;;5052729;28;20313;-85
2023/09/27 06:54:55;;;;;;;15.80;6.20;;;12.10;99.90;;;;;;5051920;28;20170;-85
2023/09/27 06:57:20;;;;;;;15.93;6.30;;;12.30;99.90;;;;;;5051959;28;20202;-85
2023/09/27 06:59:48;;;;;;;47.63;6.63;;;12.40;99.90;;;;;;5051628;28;20198;-85
2023/09/27 07:02:13;;;;;;;65.32;6.55;;;12.40;99.90;;;;;;5051745;28;20249;-85
2023/09/27 07:04:42;;;;;;;15.50;6.53;;;12.30;99.90;;;;;;5053077;28;20662;-85
2023/09/27 07:07:08;;;;;;;8.40;7.18;;;12.20;99.90;;;;;;5051812;28;20190;-85
2023/09/27 07:09:34;;;;;;;8.85;7.95;;;12.30;99.90;;;;;;5051739;28;20186;-85
2023/09/27 07:12:00;;;;;;;29.50;7.85;;;12.40;99.90;;;;;;5051841;28;20182;-85
2023/09/27 07:14:27;;;;;;;18.15;8.07;;;12.40;99.90;;;;;;5054102;28;20273;-85
2023/09/27 07:16:53;;;;;;;8.38;7.53;;;12.60;99.90;;;;;;5055366;28;20185;-85
2023/09/27 07:19:18;;;;;;;14.55;7.85;;;12.60;99.90;;;;;;5055818;28;20213;-85
2023/09/27 07:21:44;;;;;;;25.75;7.60;;;12.70;99.90;;;;;;5055250;28;20703;-85
2023/09/27 07:24:10;;;;;;;8.93;7.00;;;12.90;99.90;;;;;;5055191;28;20169;-85
2023/09/27 07:26:37;;;;;;;10.52;7.38;;;13.20;99.90;;;;;;5055383;28;20662;-85
2023/09/27 07:29:03;;;;;;;20.50;7.00;;;13.30;99.90;;;;;;5055141;28;20328;-85
2023/09/27 07:31:29;;;;;;;45.67;7.10;;;13.50;99.90;;;;;;5055189;28;20186;-85
2023/09/27 07:33:55;;;;;;;13.70;7.18;;;13.60;99.90;;;;;;5055155;28;20216;-85
2023/09/27 07:36:24;;;;;;;130.07;9.55;;;13.70;99.90;;;;;;5055219;28;20194;-85
2023/09/27 07:38:57;;;;;;;20.23;8.05;;;13.50;99.90;;;;;;5055304;28;20205;-85
2023/09/27 07:41:24;;;;;;;21.20;7.80;;;13.40;99.90;;;;;;5055722;28;20677;-85
2023/09/27 07:43:50;;;;;;;24.98;8.82;;;13.50;99.90;;;;;;5054805;28;20175;-85
2023/09/27 07:46:17;;;;;;;19.08;9.73;;;13.50;99.90;;;;;;5055219;28;20175;-83
2023/09/27 07:48:43;;;;;;;14.73;8.82;;;13.60;99.90;;;;;;5054868;28;20206;-83
2023/09/27 07:51:13;;;;;;;10.52;9.45;;;13.60;99.90;;;;;;5055127;28;20178;-83
2023/09/27 07:53:39;;;;;;;20.77;10.48;;;13.70;99.90;;;;;;5054704;28;20178;-83
2023/09/27 07:56:09;;;;;;;9.88;8.75;;;13.70;99.90;;;;;;5054808;28;20211;-83
2023/09/27 07:58:41;;;;;;;12.02;8.48;;;13.80;99.90;;;;;;5054808;28;20209;-83
2023/09/27 08:01:07;;;;;;;12.95;9.63;;;13.80;99.90;;;;;;5055292;28;20293;-83
2023/09/27 08:03:33;;;;;;;14.43;11.27;;;13.90;99.90;;;;;;5054717;28;20261;-83
2023/09/27 08:05:58;;;;;;;13.95;10.48;;;14.00;99.90;;;;;;5054131;28;20264;-83
2023/09/27 08:08:24;;;;;;;16.63;13.57;;;13.90;99.90;;;;;;5054245;28;20189;-83
2023/09/27 08:10:50;;;;;;;21.75;14.10;;;13.90;99.90;;;;;;5054293;28;20178;-83
2023/09/27 08:13:17;;;;;;;19.13;13.40;;;14.10;99.90;;;;;;5054470;28;20186;-83
2023/09/27 08:15:46;;;;;;;15.32;12.35;;;14.30;99.90;;;;;;5055687;28;20643;-83
2023/09/27 08:18:12;;;;;;;13.82;12.32;;;14.40;99.90;;;;;;5054671;28;20205;-83
2023/09/27 08:20:38;;;;;;;11.70;9.50;;;14.60;99.90;;;;;;5055922;28;20185;-83
2023/09/27 08:23:04;;;;;;;12.07;9.98;;;14.80;99.90;;;;;;5054177;28;20174;-83
2023/09/27 08:25:30;;;;;;;9.43;8.50;;;15.00;99.90;;;;;;5054442;28;20228;-83
2023/09/27 08:27:56;;;;;;;11.00;9.18;;;15.20;99.90;;;;;;5054368;28;20217;-83
2023/09/27 08:30:22;;;;;;;8.95;8.07;;;15.30;99.90;;;;;;5054129;28;20170;-83
2023/09/27 08:32:48;;;;;;;8.55;7.75;;;15.50;99.90;;;;;;5054448;28;20182;-83
2023/09/27 08:35:14;;;;;;;10.20;8.65;;;15.60;99.90;;;;;;5054351;28;20193;-84
2023/09/27 08:37:40;;;;;;;11.70;8.60;;;15.70;99.90;;;;;;5054337;28;20194;-83
2023/09/27 08:40:08;;;;;;;9.20;8.23;;;15.80;99.90;;;;;;5053857;28;20224;-83
2023/09/27 08:42:34;;;;;;;8.32;7.63;;;15.90;99.90;;;;;;5054287;28;20213;-83
2023/09/27 08:45:01;;;;;;;9.82;8.82;;;16.00;99.90;;;;;;5054575;28;20174;-83
2023/09/27 08:47:27;;;;;;;17.23;14.85;;;16.10;99.90;;;;;;5054333;28;20201;-85
2023/09/27 08:49:57;;;;;;;13.38;10.23;;;16.30;99.90;;;;;;5053796;28;20196;-85
2023/09/27 08:52:27;;;;;;;12.02;10.93;;;16.40;99.90;;;;;;5054002;28;20325;-85
2023/09/27 08:54:53;;;;;;;11.27;10.27;;;16.50;99.90;;;;;;5053763;28;20185;-86
2023/09/27 08:57:20;;;;;;;9.27;8.35;;;16.60;99.90;;;;;;5054220;28;20209;-85
2023/09/27 08:59:46;;;;;;;9.68;8.55;;;16.70;99.90;;;;;;5053989;28;20204;-85
2023/09/27 09:02:13;;;;;;;10.35;8.88;;;16.80;99.90;;;;;;5053438;28;20198;-85
2023/09/27 09:04:40;;;;;;;9.85;8.60;;;16.80;99.90;;;;;;5054866;28;20197;-85
2023/09/27 09:07:07;;;;;;;9.80;8.80;;;17.00;99.90;;;;;;5053601;28;20187;-86
2023/09/27 09:09:33;;;;;;;10.38;9.18;;;17.10;99.90;;;;;;5053529;28;20170;-86
2023/09/27 09:12:09;;;;;;;10.68;9.68;;;17.20;99.90;;;;;;5053027;28;20166;-85
2023/09/27 09:14:44;;;;;;;9.63;8.73;;;17.30;99.90;;;;;;5053091;28;20162;-85
2023/09/27 09:17:11;;;;;;;10.32;9.32;;;17.50;99.90;;;;;;5053096;28;20197;-86
2023/09/27 09:19:41;;;;;;;9.05;8.10;;;17.60;99.90;;;;;;5053189;28;20208;-86
2023/09/27 09:22:08;;;;;;;9.05;8.25;;;17.60;99.90;;;;;;5053474;28;20202;-85
2023/09/27 09:24:45;;;;;;;11.80;10.73;;;17.70;99.90;;;;;;5052642;28;20645;-85
2023/09/27 09:27:14;;;;;;;10.45;8.48;;;17.80;99.90;;;;;;5052748;28;20218;-84
2023/09/27 09:29:47;;;;;;;10.07;9.27;;;18.00;99.90;;;;;;5050782;28;20228;-84
2023/09/27 09:32:18;;;;;;;9.05;8.15;;;18.10;99.90;;;;;;5041277;28;20193;-84
2023/09/27 09:34:49;;;;;;;9.57;8.07;;;18.20;99.90;;;;;;5043147;28;20186;-84
2023/09/27 09:37:19;;;;;;;8.82;7.97;;;18.40;99.90;;;;;;5044708;28;20213;-84
2023/09/27 09:39:47;;;;;;;8.45;7.57;;;18.40;99.90;;;;;;5043458;28;20186;-84
2023/09/27 09:42:29;;;;;;;8.40;7.65;;;18.50;99.90;;;;;;5054034;28;20293;-84
2023/09/27 09:45:10;;;;;;;7.95;7.28;;;18.60;99.90;;;;;;5053345;28;20170;-84
2023/09/27 09:47:37;;;;;;;7.40;6.45;;;18.80;99.90;;;;;;5048912;28;20255;-86
2023/09/27 09:50:16;;;;;;;7.57;6.85;;;18.90;99.90;;;;;;5065202;28;20724;-85
2023/09/27 09:52:58;;;;;;;7.28;6.55;;;19.00;99.90;;;;;;5051677;28;20631;-86
2023/09/27 09:55:51;;;;;;;8.32;7.43;;;19.00;99.90;;;;;;5052846;28;20171;-85
2023/09/27 09:58:39;;;;;;;8.02;7.10;;;19.20;99.90;;;;;;5047373;28;20218;-86
2023/09/27 10:01:07;;;;;;;8.05;7.35;;;19.30;99.90;;;;;;5040931;28;20201;-85
2023/09/27 10:03:34;;;;;;;8.07;7.20;;;19.40;99.90;;;;;;5044005;28;20219;-86
2023/09/27 10:06:04;;;;;;;9.60;7.72;;;19.40;99.90;;;;;;5047105;28;20179;-85
2023/09/27 10:08:34;;;;;;;7.63;5.80;;;19.50;99.90;;;;;;5048099;28;20193;-86
2023/09/27 10:11:06;;;;;;;7.43;6.40;;;19.60;99.90;;;;;;5048440;28;20182;-86
2023/09/27 10:13:37;;;;;;;6.63;6.03;;;19.60;99.90;;;;;;5051391;28;20181;-86
2023/09/27 10:16:04;;;;;;;6.55;5.95;;;19.70;99.90;;;;;;5051935;28;20289;-86
2023/09/27 10:18:38;;;;;;;9.15;5.93;;;19.80;99.90;;;;;;5052049;28;20617;-86
2023/09/27 10:21:03;;;;;;;7.00;5.55;;;19.90;99.90;;;;;;5050505;28;20206;-86
2023/09/27 10:23:47;;;;;;;7.28;5.30;;;20.00;99.90;;;;;;5051356;28;20257;-86
2023/09/27 10:26:28;;;;;;;6.72;5.13;;;20.00;99.90;;;;;;5051911;28;20276;-86
2023/09/27 10:29:03;;;;;;;9.88;6.00;;;20.20;99.90;;;;;;5052054;28;20208;-86
2023/09/27 10:31:36;;;;;;;11.13;6.20;;;20.30;99.90;;;;;;5053263;28;20173;-86
2023/09/27 10:34:02;;;;;;;11.13;6.32;;;20.30;99.90;;;;;;5052426;28;20179;-86
2023/09/27 10:36:29;;;;;;;6.47;5.85;;;20.40;99.90;;;;;;5052192;28;20181;-86
2023/09/27 10:38:55;;;;;;;7.85;5.82;;;20.60;99.90;;;;;;5051960;28;20198;-86
2023/09/27 10:41:33;;;;;;;5.95;5.40;;;20.70;99.90;;;;;;5052324;28;20213;-86
2023/09/27 10:44:03;;;;;;;8.55;5.97;;;20.80;99.90;;;;;;5052068;28;20177;-86
2023/09/27 10:46:48;;;;;;;9.25;5.63;;;20.90;99.90;;;;;;5052712;28;20588;-84
2023/09/27 10:49:27;;;;;;;6.55;5.95;;;21.00;99.90;;;;;;5055374;28;20233;-84
2023/09/27 10:51:53;;;;;;;7.00;5.15;;;21.20;99.90;;;;;;5057023;28;20182;-84
2023/09/27 10:54:23;;;;;;;6.63;6.00;;;21.30;99.90;;;;;;5056372;28;20183;-84
2023/09/27 10:56:53;;;;;;;7.35;5.82;;;21.50;99.90;;;;;;5057370;28;20174;-84
2023/09/27 10:59:28;;;;;;;8.18;5.18;;;21.50;99.90;;;;;;5056349;28;20189;-84
2023/09/27 11:01:55;;;;;;;6.45;5.85;;;21.50;99.90;;;;;;5056349;28;20205;-83
2023/09/27 11:04:25;;;;;;;7.07;5.13;;;21.40;99.90;;;;;;5056846;28;20181;-84
2023/09/27 11:06:51;;;;;;;8.77;5.57;;;21.50;99.90;;;;;;5056077;28;20170;-83
2023/09/27 11:09:19;;;;;;;7.25;5.03;;;21.40;99.90;;;;;;5055893;28;20167;-82
2023/09/27 11:11:47;;;;;;;6.25;5.15;;;21.40;99.90;;;;;;5055866;28;20181;-82
2023/09/27 11:14:13;;;;;;;6.07;5.38;;;21.40;99.90;;;;;;5056099;28;20178;-82
2023/09/27 11:16:39;;;;;;;7.43;4.78;;;21.50;99.90;;;;;;5056653;28;20186;-83
2023/09/27 11:19:05;;;;;;;8.40;5.60;;;21.40;99.90;;;;;;5056012;28;20202;-83
2023/09/27 11:21:31;;;;;;;7.47;4.90;;;21.40;99.90;;;;;;5055732;28;20293;-82
2023/09/27 11:23:59;;;;;;;5.93;5.10;;;21.40;99.90;;;;;;5056411;28;20189;-83
2023/09/27 11:26:31;;;;;;;9.90;5.40;;;21.50;99.90;;;;;;5055874;28;20260;-82
2023/09/27 11:29:00;;;;;;;7.28;5.40;;;21.50;99.90;;;;;;5055522;28;20201;-82
2023/09/27 11:31:32;;;;;;;6.18;4.53;;;21.50;99.90;;;;;;5055957;28;20203;-82
2023/09/27 11:34:13;;;;;;;5.68;5.13;;;21.50;99.90;;;;;;5053700;28;20280;-82
2023/09/27 11:36:47;;;;;;;7.90;5.57;;;21.60;99.90;;;;;;5054806;28;20181;-82
2023/09/27 11:39:17;;;;;;;5.72;5.30;;;21.50;99.90;;;;;;5055425;28;20634;-84
2023/09/27 11:41:44;;;;;;;5.93;5.43;;;21.40;99.90;;;;;;5055400;28;20581;-84
2023/09/27 11:44:20;;;;;;;5.25;4.75;;;21.30;99.90;;;;;;5053579;28;20175;-84
2023/09/27 11:46:47;;;;;;;9.30;5.50;;;21.30;99.90;;;;;;5055579;28;20174;-84
2023/09/27 11:49:13;;;;;;;6.93;5.25;;;21.40;99.90;;;;;;5054704;28;20174;-84
2023/09/27 11:51:39;;;;;;;4.75;4.35;;;21.40;99.90;;;;;;5055539;28;20171;-84
2023/09/27 11:54:06;;;;;;;5.55;4.95;;;21.50;99.90;;;;;;5054936;28;20177;-84
2023/09/27 11:56:33;;;;;;;6.05;4.85;;;21.60;99.90;;;;;;5054837;28;20209;-84
2023/09/27 11:58:59;;;;;;;5.30;4.90;;;21.60;99.90;;;;;;5054541;28;20206;-84
2023/09/27 12:01:25;;;;;;;6.18;4.78;;;21.70;99.90;;;;;;5054238;28;20210;-84
2023/09/27 12:03:53;;;;;;;7.65;4.93;;;21.70;99.90;;;;;;5054532;28;20264;-84
2023/09/27 12:06:18;;;;;;;5.82;5.25;;;21.80;99.90;;;;;;5055487;28;20545;-84
2023/09/27 12:08:45;;;;;;;7.22;4.63;;;21.80;99.90;;;;;;5048418;28;20206;-81
2023/09/27 12:11:11;;;;;;;5.68;5.13;;;21.80;99.90;;;;;;5052395;28;20285;-84
2023/09/27 12:13:37;;;;;;;7.05;5.13;;;21.90;99.90;;;;;;5048365;28;20175;-83
2023/09/27 12:16:02;;;;;;;5.20;4.70;;;21.90;99.90;;;;;;5052959;28;20247;-83
2023/09/27 12:18:28;;;;;;;8.55;4.82;;;21.90;99.90;;;;;;5050310;28;20265;-83
2023/09/27 12:20:55;;;;;;;6.07;4.60;;;22.00;99.90;;;;;;5052624;28;20252;-84
2023/09/27 12:23:21;;;;;;;6.53;4.72;;;22.00;99.90;;;;;;5040490;28;20651;-83
2023/09/27 12:25:48;;;;;;;5.10;4.43;;;22.00;99.90;;;;;;5052384;28;20186;-83
2023/09/27 12:28:17;;;;;;;8.25;4.60;;;22.00;99.90;;;;;;5052298;28;20241;-83
2023/09/27 12:30:43;;;;;;;5.47;4.60;;;22.00;99.90;;;;;;5047467;28;20190;-83
2023/09/27 12:33:09;;;;;;;6.22;4.13;;;22.00;99.90;;;;;;5034569;28;20159;-83
2023/09/27 12:35:35;;;;;;;6.32;4.55;;;22.00;99.90;;;;;;5033944;28;20639;-83
2023/09/27 12:38:06;;;;;;;7.03;4.72;;;22.10;99.90;;;;;;5033875;28;20605;-83
2023/09/27 12:40:35;;;;;;;5.50;4.70;;;22.10;99.90;;;;;;5033897;28;20169;-84
2023/09/27 12:43:01;;;;;;;7.95;5.00;;;22.30;99.90;;;;;;5038206;28;20187;-83
2023/09/27 12:45:28;;;;;;;4.90;4.00;;;22.40;99.90;;;;;;5053958;28;20244;-83
2023/09/27 12:47:53;;;;;;;6.22;4.60;;;22.60;99.90;;;;;;5053650;28;20210;-83
2023/09/27 12:50:26;;;;;;;4.78;4.13;;;22.60;99.90;;;;;;5053642;28;20166;-83
2023/09/27 12:52:56;;;;;;;4.40;4.00;;;22.70;99.90;;;;;;5053711;28;20170;-83
2023/09/27 12:55:22;;;;;;;4.55;4.15;;;22.80;99.90;;;;;;5053718;28;20224;-83
2023/09/27 12:57:49;;;;;;;5.03;4.30;;;22.70;99.90;;;;;;5053820;28;20293;-83
2023/09/27 13:00:17;;;;;;;5.78;4.72;;;22.50;99.90;;;;;;5053816;28;20201;-83
2023/09/27 13:02:42;;;;;;;5.63;4.60;;;22.30;99.90;;;;;;5043479;28;20722;-83
2023/09/27 13:05:08;;;;;;;6.50;5.63;;;22.30;99.90;;;;;;5050361;28;20178;-84
2023/09/27 13:07:34;;;;;;;6.60;5.72;;;22.10;99.90;;;;;;5065314;28;20289;-84
2023/09/27 13:09:59;;;;;;;7.60;5.70;;;22.10;99.90;;;;;;5033604;28;20203;-84
2023/09/27 13:12:25;;;;;;;6.15;5.28;;;22.00;99.90;;;;;;5033484;28;20175;-84
2023/09/27 13:14:56;;;;;;;5.50;5.05;;;22.00;99.90;;;;;;5033186;28;20183;-84
2023/09/27 13:17:25;;;;;;;6.35;5.28;;;21.90;99.90;;;;;;5033415;28;20203;-84
2023/09/27 13:19:54;;;;;;;9.57;5.20;;;21.90;99.90;;;;;;5033130;28;20182;-84
2023/09/27 13:22:24;;;;;;;5.55;5.05;;;21.90;99.90;;;;;;5033287;28;20211;-84
2023/09/27 13:24:49;;;;;;;7.32;5.30;;;22.00;99.90;;;;;;5034185;28;20171;-84
2023/09/27 13:27:15;;;;;;;7.72;5.00;;;22.20;99.90;;;;;;5033193;28;20305;-84
2023/09/27 13:29:47;;;;;;;5.82;5.18;;;22.30;99.90;;;;;;5033294;28;20178;-84
2023/09/27 13:32:14;;;;;;;5.38;4.78;;;22.30;99.90;;;;;;5033397;28;20181;-84
2023/09/27 13:34:42;;;;;;;5.25;4.80;;;22.40;99.90;;;;;;5033908;28;20273;-84
2023/09/27 13:37:08;;;;;;;6.05;5.28;;;22.50;99.90;;;;;;5033656;28;20687;-84
2023/09/27 13:39:34;;;;;;;9.55;5.32;;;22.50;99.90;;;;;;5033537;28;20620;-84
2023/09/27 13:42:00;;;;;;;5.85;5.25;;;22.50;99.90;;;;;;5033270;28;20209;-84
2023/09/27 13:44:28;;;;;;;6.32;4.57;;;22.50;99.90;;;;;;5033709;28;20639;-84
2023/09/27 13:46:54;;;;;;;5.40;4.90;;;22.50;99.90;;;;;;5033455;28;20269;-87
2023/09/27 13:49:21;;;;;;;8.30;5.28;;;22.40;99.90;;;;;;5034184;28;20159;-87
2023/09/27 13:51:47;;;;;;;5.78;5.18;;;22.40;99.90;;;;;;5016455;28;20570;-87
2023/09/27 13:54:14;;;;;;;9.50;5.32;;;22.40;99.90;;;;;;5033144;28;20175;-87
2023/09/27 13:56:42;;;;;;;5.50;4.95;;;22.20;99.90;;;;;;5032500;28;20167;-87
2023/09/27 13:59:34;;;;;;;6.15;4.55;;;22.10;99.90;;;;;;5033364;28;20202;-86
2023/09/27 14:02:02;;;;;;;6.65;4.68;;;22.10;99.90;;;;;;5032602;28;20592;-86
2023/09/27 14:04:28;;;;;;;5.03;4.63;;;22.10;99.90;;;;;;5032519;28;20221;-87
2023/09/27 14:06:54;;;;;;;6.78;4.65;;;22.10;99.90;;;;;;5032390;28;20186;-87
2023/09/27 14:09:19;;;;;;;7.78;4.70;;;22.00;99.90;;;;;;5032429;28;20167;-86
2023/09/27 14:11:46;;;;;;;6.65;5.07;;;22.00;99.90;;;;;;5032739;28;20179;-87
2023/09/27 14:14:20;;;;;;;6.38;5.25;;;21.90;99.90;;;;;;5032750;28;20202;-85
2023/09/27 14:16:47;;;;;;;5.40;4.90;;;22.00;99.90;;;;;;5033355;28;20616;-85
2023/09/27 14:19:17;;;;;;;5.78;5.13;;;21.90;99.90;;;;;;5033084;28;20182;-85
2023/09/27 14:22:03;;;;;;;5.07;4.68;;;21.90;99.90;;;;;;5032670;28;20203;-86
2023/09/27 14:24:33;;;;;;;5.03;4.63;;;21.90;99.90;;;;;;5032689;28;20198;-86
2023/09/27 14:26:59;;;;;;;5.68;4.90;;;21.80;99.90;;;;;;5032417;28;20674;-86
2023/09/27 14:29:26;;;;;;;6.40;4.97;;;21.70;99.90;;;;;;5032155;28;20231;-85
2023/09/27 14:32:13;;;;;;;5.68;4.63;;;21.70;99.90;;;;;;5032015;28;20554;-85
2023/09/27 14:34:40;;;;;;;5.43;4.93;;;21.70;99.90;;;;;;5032463;28;20207;-86
2023/09/27 14:37:05;;;;;;;5.15;4.65;;;21.60;99.90;;;;;;5031975;28;20175;-86
2023/09/27 14:39:31;;;;;;;5.82;5.20;;;21.50;99.90;;;;;;5032085;28;20174;-86
2023/09/27 14:42:09;;;;;;;6.78;5.45;;;21.50;99.90;;;;;;5033109;28;20603;-86
2023/09/27 14:44:35;;;;;;;7.70;5.45;;;21.40;99.90;;;;;;5032688;28;20174;-86
2023/09/27 14:47:01;;;;;;;5.30;4.78;;;21.30;99.90;;;;;;5032410;28;20175;-85
2023/09/27 14:49:30;;;;;;;5.20;4.57;;;21.30;99.90;;;;;;5032034;28;20171;-85
2023/09/27 14:51:55;;;;;;;5.22;4.70;;;21.30;99.90;;;;;;5032140;28;20213;-86
2023/09/27 14:54:23;;;;;;;5.10;4.60;;;21.20;99.90;;;;;;5032054;28;20574;-85
2023/09/27 14:56:49;;;;;;;5.55;5.03;;;21.20;99.90;;;;;;5031701;28;20175;-86
2023/09/27 14:59:17;;;;;;;5.30;4.80;;;21.20;99.90;;;;;;5031484;28;20247;-86
2023/09/27 15:01:43;;;;;;;6.65;5.05;;;21.10;99.90;;;;;;5032172;28;20254;-86
2023/09/27 15:04:09;;;;;;;6.85;4.85;;;21.00;99.90;;;;;;5032075;28;20270;-86
2023/09/27 15:06:34;;;;;;;5.60;5.10;;;20.90;99.90;;;;;;5031613;28;20593;-85
2023/09/27 15:09:01;;;;;;;5.80;5.20;;;20.90;99.90;;;;;;5031540;28;20194;-85